sensor_id;sensor_type;location;lat;lon;timestamp;pressure;altitude;pressure_sealevel;temperature;humidity
80424;BME280;69765;47.668;19.326;2023-05-19T00:00:44;99750.63;;;11.72;92.06
80424;BME280;69765;47.668;19.326;2023-05-19T00:03:52;99751.19;;;11.68;92.47
80424;BME280;69765;47.668;19.326;2023-05-19T00:06:58;99752.84;;;11.80;92.30
80424;BME280;69765;47.668;19.326;2023-05-19T00:10:01;99747.97;;;11.83;91.87
80424;BME280;69765;47.668;19.326;2023-05-19T00:13:03;99740.34;;;11.84;91.93
80424;BME280;69765;47.668;19.326;2023-05-19T00:16:06;99736.44;;;11.89;91.82
80424;BME280;69765;47.668;19.326;2023-05-19T00:19:09;99732.31;;;11.80;91.56
80424;BME280;69765;47.668;19.326;2023-05-19T00:22:14;99729.88;;;11.81;91.39
80424;BME280;69765;47.668;19.326;2023-05-19T00:25:16;99724.41;;;11.65;92.27
80424;BME280;69765;47.668;19.326;2023-05-19T00:28:19;99733.47;;;11.60;92.39
80424;BME280;69765;47.668;19.326;2023-05-19T00:31:21;99727.53;;;11.61;92.20
80424;BME280;69765;47.668;19.326;2023-05-19T00:34:24;99725.44;;;11.55;91.62
80424;BME280;69765;47.668;19.326;2023-05-19T00:37:27;99733.94;;;11.54;92.28
80424;BME280;69765;47.668;19.326;2023-05-19T00:40:30;99738.50;;;11.58;91.89
80424;BME280;69765;47.668;19.326;2023-05-19T00:43:33;99730.69;;;11.57;91.86
80424;BME280;69765;47.668;19.326;2023-05-19T00:46:36;99739.25;;;11.57;91.89
80424;BME280;69765;47.668;19.326;2023-05-19T00:49:39;99728.38;;;11.48;92.46
80424;BME280;69765;47.668;19.326;2023-05-19T00:52:42;99733.28;;;11.45;92.59
80424;BME280;69765;47.668;19.326;2023-05-19T00:55:46;99728.81;;;11.42;92.57
80424;BME280;69765;47.668;19.326;2023-05-19T00:58:52;99730.94;;;11.48;92.45
80424;BME280;69765;47.668;19.326;2023-05-19T01:01:56;99722.91;;;11.43;92.36
80424;BME280;69765;47.668;19.326;2023-05-19T01:05:00;99722.91;;;11.32;92.82
80424;BME280;69765;47.668;19.326;2023-05-19T01:08:04;99732.41;;;11.21;93.08
80424;BME280;69765;47.668;19.326;2023-05-19T01:11:07;99722.00;;;11.19;93.53
80424;BME280;69765;47.668;19.326;2023-05-19T01:14:09;99741.88;;;11.22;93.72
80424;BME280;69765;47.668;19.326;2023-05-19T01:17:25;99717.34;;;11.25;93.24
80424;BME280;69765;47.668;19.326;2023-05-19T01:20:35;99703.06;;;11.29;93.14
80424;BME280;69765;47.668;19.326;2023-05-19T01:23:53;99705.75;;;11.31;93.04
80424;BME280;69765;47.668;19.326;2023-05-19T01:33:34;99692.47;;;11.36;92.60
80424;BME280;69765;47.668;19.326;2023-05-19T01:36:37;99700.25;;;11.38;92.84
80424;BME280;69765;47.668;19.326;2023-05-19T01:39:43;99700.16;;;11.48;92.54
80424;BME280;69765;47.668;19.326;2023-05-19T01:42:47;99701.03;;;11.37;92.76
80424;BME280;69765;47.668;19.326;2023-05-19T01:45:51;99702.06;;;11.39;92.83
80424;BME280;69765;47.668;19.326;2023-05-19T01:48:55;99704.97;;;11.32;92.96
80424;BME280;69765;47.668;19.326;2023-05-19T01:51:58;99703.28;;;11.32;93.12
80424;BME280;69765;47.668;19.326;2023-05-19T01:55:01;99697.81;;;11.27;93.55
80424;BME280;69765;47.668;19.326;2023-05-19T02:04:42;99708.09;;;11.39;92.83
80424;BME280;69765;47.668;19.326;2023-05-19T02:07:51;99708.31;;;11.31;93.14
80424;BME280;69765;47.668;19.326;2023-05-19T02:11:06;99724.81;;;11.34;93.04
80424;BME280;69765;47.668;19.326;2023-05-19T02:14:19;99726.59;;;11.35;93.06
80424;BME280;69765;47.668;19.326;2023-05-19T02:17:23;99716.78;;;11.30;93.44
80424;BME280;69765;47.668;19.326;2023-05-19T02:20:29;99722.13;;;11.33;92.96
80424;BME280;69765;47.668;19.326;2023-05-19T02:23:32;99718.78;;;11.34;93.04
80424;BME280;69765;47.668;19.326;2023-05-19T02:26:35;99713.09;;;11.38;93.03
80424;BME280;69765;47.668;19.326;2023-05-19T02:29:38;99711.50;;;11.51;92.41
80424;BME280;69765;47.668;19.326;2023-05-19T02:32:40;99716.88;;;11.43;92.83
80424;BME280;69765;47.668;19.326;2023-05-19T02:35:43;99716.44;;;11.48;93.03
80424;BME280;69765;47.668;19.326;2023-05-19T02:38:46;99713.97;;;11.38;92.97
80424;BME280;69765;47.668;19.326;2023-05-19T02:41:49;99713.75;;;11.47;92.34
80424;BME280;69765;47.668;19.326;2023-05-19T02:44:53;99717.78;;;11.43;93.19
80424;BME280;69765;47.668;19.326;2023-05-19T02:47:56;99708.97;;;11.40;92.88
80424;BME280;69765;47.668;19.326;2023-05-19T02:50:59;99719.00;;;11.48;92.25
80424;BME280;69765;47.668;19.326;2023-05-19T02:54:02;99714.84;;;11.50;92.61
80424;BME280;69765;47.668;19.326;2023-05-19T02:57:05;99716.31;;;11.47;93.24
80424;BME280;69765;47.668;19.326;2023-05-19T03:00:08;99713.75;;;11.47;92.96
80424;BME280;69765;47.668;19.326;2023-05-19T03:03:11;99712.97;;;11.36;93.47
80424;BME280;69765;47.668;19.326;2023-05-19T03:06:15;99710.63;;;11.51;93.14
80424;BME280;69765;47.668;19.326;2023-05-19T03:09:19;99714.88;;;11.39;93.27
80424;BME280;69765;47.668;19.326;2023-05-19T03:12:22;99711.75;;;11.31;93.58
80424;BME280;69765;47.668;19.326;2023-05-19T03:15:24;99709.09;;;11.30;93.55
80424;BME280;69765;47.668;19.326;2023-05-19T03:18:27;99705.19;;;11.35;93.71
80424;BME280;69765;47.668;19.326;2023-05-19T03:21:30;99711.06;;;11.34;93.78
80424;BME280;69765;47.668;19.326;2023-05-19T03:24:33;99716.88;;;11.43;92.60
80424;BME280;69765;47.668;19.326;2023-05-19T03:27:36;99713.41;;;11.42;92.58
80424;BME280;69765;47.668;19.326;2023-05-19T03:30:40;99718.13;;;11.36;93.25
80424;BME280;69765;47.668;19.326;2023-05-19T03:33:47;99720.22;;;11.42;93.06
80424;BME280;69765;47.668;19.326;2023-05-19T03:36:50;99721.00;;;11.41;92.95
80424;BME280;69765;47.668;19.326;2023-05-19T03:39:52;99721.47;;;11.35;93.37
80424;BME280;69765;47.668;19.326;2023-05-19T03:42:55;99726.94;;;11.40;93.27
80424;BME280;69765;47.668;19.326;2023-05-19T03:45:57;99716.53;;;11.38;93.71
80424;BME280;69765;47.668;19.326;2023-05-19T03:49:19;99722.44;;;11.49;92.80
80424;BME280;69765;47.668;19.326;2023-05-19T03:52:40;99720.41;;;11.57;93.25
80424;BME280;69765;47.668;19.326;2023-05-19T03:55:57;99721.63;;;11.62;93.19
80424;BME280;69765;47.668;19.326;2023-05-19T03:59:01;99729.09;;;11.70;93.36
80424;BME280;69765;47.668;19.326;2023-05-19T04:02:07;99719.94;;;11.86;91.56
80424;BME280;69765;47.668;19.326;2023-05-19T04:05:09;99730.41;;;11.89;92.27
80424;BME280;69765;47.668;19.326;2023-05-19T04:08:12;99729.03;;;12.06;91.56
80424;BME280;69765;47.668;19.326;2023-05-19T04:11:15;99730.47;;;12.02;91.36
80424;BME280;69765;47.668;19.326;2023-05-19T04:14:17;99728.72;;;12.01;92.31
80424;BME280;69765;47.668;19.326;2023-05-19T04:17:21;99737.94;;;12.11;92.62
80424;BME280;69765;47.668;19.326;2023-05-19T04:20:28;99738.50;;;12.32;92.27
80424;BME280;69765;47.668;19.326;2023-05-19T04:23:32;99740.72;;;12.39;91.56
80424;BME280;69765;47.668;19.326;2023-05-19T04:26:34;99734.88;;;12.41;91.34
80424;BME280;69765;47.668;19.326;2023-05-19T04:29:41;99732.31;;;12.41;91.08
80424;BME280;69765;47.668;19.326;2023-05-19T04:32:44;99742.44;;;12.51;91.27
80424;BME280;69765;47.668;19.326;2023-05-19T04:35:47;99741.38;;;12.61;90.30
80424;BME280;69765;47.668;19.326;2023-05-19T04:38:52;99737.81;;;12.59;90.46
80424;BME280;69765;47.668;19.326;2023-05-19T04:42:05;99750.81;;;12.87;89.87
80424;BME280;69765;47.668;19.326;2023-05-19T04:45:08;99745.69;;;13.00;89.06
80424;BME280;69765;47.668;19.326;2023-05-19T04:48:15;99749.69;;;13.22;87.84
80424;BME280;69765;47.668;19.326;2023-05-19T04:51:19;99743.47;;;13.32;87.15
80424;BME280;69765;47.668;19.326;2023-05-19T04:54:22;99757.59;;;13.38;86.89
80424;BME280;69765;47.668;19.326;2023-05-19T04:57:25;99749.16;;;13.54;85.83
80424;BME280;69765;47.668;19.326;2023-05-19T05:00:28;99752.47;;;13.51;86.01
80424;BME280;69765;47.668;19.326;2023-05-19T05:03:37;99754.38;;;13.82;84.17
80424;BME280;69765;47.668;19.326;2023-05-19T05:06:39;99748.97;;;14.05;82.38
80424;BME280;69765;47.668;19.326;2023-05-19T05:09:44;99762.53;;;14.16;83.91
80424;BME280;69765;47.668;19.326;2023-05-19T05:12:47;99757.81;;;14.52;81.76
80424;BME280;69765;47.668;19.326;2023-05-19T05:15:50;99760.88;;;14.74;80.22
80424;BME280;69765;47.668;19.326;2023-05-19T05:18:54;99756.44;;;14.87;79.37
80424;BME280;69765;47.668;19.326;2023-05-19T05:21:58;99753.94;;;15.18;79.38
80424;BME280;69765;47.668;19.326;2023-05-19T05:25:02;99755.75;;;15.50;76.69
80424;BME280;69765;47.668;19.326;2023-05-19T05:28:05;99759.03;;;15.62;78.20
80424;BME280;69765;47.668;19.326;2023-05-19T05:31:10;99766.47;;;15.87;75.29
80424;BME280;69765;47.668;19.326;2023-05-19T05:34:14;99759.22;;;16.13;76.40
80424;BME280;69765;47.668;19.326;2023-05-19T05:37:17;99752.94;;;16.24;75.05
80424;BME280;69765;47.668;19.326;2023-05-19T05:40:20;99756.72;;;16.30;75.23
80424;BME280;69765;47.668;19.326;2023-05-19T05:43:23;99761.72;;;16.27;74.05
80424;BME280;69765;47.668;19.326;2023-05-19T05:46:31;99759.72;;;16.22;73.91
80424;BME280;69765;47.668;19.326;2023-05-19T05:49:34;99765.59;;;16.35;75.37
80424;BME280;69765;47.668;19.326;2023-05-19T05:52:40;99769.66;;;16.47;73.82
80424;BME280;69765;47.668;19.326;2023-05-19T05:55:45;99761.22;;;17.18;73.17
80424;BME280;69765;47.668;19.326;2023-05-19T05:58:48;99760.69;;;18.54;68.26
80424;BME280;69765;47.668;19.326;2023-05-19T06:01:51;99766.78;;;18.95;65.97
80424;BME280;69765;47.668;19.326;2023-05-19T06:04:55;99758.69;;;20.17;61.78
80424;BME280;69765;47.668;19.326;2023-05-19T06:07:58;99753.31;;;20.59;60.20
80424;BME280;69765;47.668;19.326;2023-05-19T06:11:02;99762.59;;;21.55;58.08
80424;BME280;69765;47.668;19.326;2023-05-19T06:14:13;99759.09;;;21.81;55.55
80424;BME280;69765;47.668;19.326;2023-05-19T06:17:46;99763.69;;;21.34;58.16
80424;BME280;69765;47.668;19.326;2023-05-19T06:20:49;99759.31;;;20.34;58.94
80424;BME280;69765;47.668;19.326;2023-05-19T06:23:51;99764.38;;;20.07;61.82
80424;BME280;69765;47.668;19.326;2023-05-19T06:26:54;99761.50;;;19.77;61.71
80424;BME280;69765;47.668;19.326;2023-05-19T06:29:59;99775.94;;;19.48;65.72
80424;BME280;69765;47.668;19.326;2023-05-19T06:33:05;99777.41;;;19.21;64.62
80424;BME280;69765;47.668;19.326;2023-05-19T06:36:08;99783.97;;;19.33;63.83
80424;BME280;69765;47.668;19.326;2023-05-19T06:39:13;99790.41;;;19.62;63.36
80424;BME280;69765;47.668;19.326;2023-05-19T06:42:15;99789.31;;;19.80;64.02
80424;BME280;69765;47.668;19.326;2023-05-19T06:45:31;99795.56;;;20.06;64.46
80424;BME280;69765;47.668;19.326;2023-05-19T06:48:36;99798.69;;;20.20;60.39
80424;BME280;69765;47.668;19.326;2023-05-19T06:51:38;99797.03;;;20.46;61.26
80424;BME280;69765;47.668;19.326;2023-05-19T06:54:41;99796.38;;;20.99;59.17
80424;BME280;69765;47.668;19.326;2023-05-19T06:57:45;99801.53;;;21.49;56.87
80424;BME280;69765;47.668;19.326;2023-05-19T07:00:48;99803.28;;;21.50;56.82
80424;BME280;69765;47.668;19.326;2023-05-19T07:03:51;99795.69;;;21.05;59.70
80424;BME280;69765;47.668;19.326;2023-05-19T07:06:55;99807.31;;;20.89;59.36
80424;BME280;69765;47.668;19.326;2023-05-19T07:09:58;99807.34;;;20.42;62.91
80424;BME280;69765;47.668;19.326;2023-05-19T07:13:02;99801.66;;;20.30;62.80
80424;BME280;69765;47.668;19.326;2023-05-19T07:16:07;99802.84;;;20.38;62.89
80424;BME280;69765;47.668;19.326;2023-05-19T07:19:09;99803.72;;;20.85;60.50
80424;BME280;69765;47.668;19.326;2023-05-19T07:22:12;99794.50;;;20.95;59.56
80424;BME280;69765;47.668;19.326;2023-05-19T07:25:14;99796.84;;;21.92;58.56
80424;BME280;69765;47.668;19.326;2023-05-19T07:28:20;99791.16;;;22.66;52.28
80424;BME280;69765;47.668;19.326;2023-05-19T07:31:22;99795.25;;;23.54;53.23
80424;BME280;69765;47.668;19.326;2023-05-19T07:34:25;99792.44;;;21.63;55.17
80424;BME280;69765;47.668;19.326;2023-05-19T07:37:27;99791.91;;;23.25;54.20
80424;BME280;69765;47.668;19.326;2023-05-19T07:40:29;99795.75;;;23.76;50.68
80424;BME280;69765;47.668;19.326;2023-05-19T07:43:33;99789.00;;;23.85;53.66
80424;BME280;69765;47.668;19.326;2023-05-19T07:46:36;99797.13;;;23.61;51.65
80424;BME280;69765;47.668;19.326;2023-05-19T07:49:39;99789.03;;;22.51;53.15
80424;BME280;69765;47.668;19.326;2023-05-19T07:52:41;99799.19;;;22.40;54.64
80424;BME280;69765;47.668;19.326;2023-05-19T07:55:45;99793.00;;;22.68;55.74
80424;BME280;69765;47.668;19.326;2023-05-19T07:58:48;99789.69;;;22.44;53.00
80424;BME280;69765;47.668;19.326;2023-05-19T08:01:50;99790.41;;;22.10;53.85
80424;BME280;69765;47.668;19.326;2023-05-19T08:04:53;99786.25;;;23.08;54.58
80424;BME280;69765;47.668;19.326;2023-05-19T08:07:55;99778.47;;;24.21;50.63
80424;BME280;69765;47.668;19.326;2023-05-19T08:11:02;99769.22;;;25.31;48.46
80424;BME280;69765;47.668;19.326;2023-05-19T08:14:05;99764.22;;;25.46;47.69
80424;BME280;69765;47.668;19.326;2023-05-19T08:17:07;99765.91;;;25.97;49.36
80424;BME280;69765;47.668;19.326;2023-05-19T08:20:10;99756.50;;;26.16;44.51
80424;BME280;69765;47.668;19.326;2023-05-19T08:23:15;99764.22;;;26.72;42.26
80424;BME280;69765;47.668;19.326;2023-05-19T08:26:19;99768.50;;;26.67;41.16
80424;BME280;69765;47.668;19.326;2023-05-19T08:29:22;99769.47;;;26.74;42.93
80424;BME280;69765;47.668;19.326;2023-05-19T08:32:25;99771.38;;;25.55;48.60
80424;BME280;69765;47.668;19.326;2023-05-19T08:35:27;99765.75;;;26.55;45.82
80424;BME280;69765;47.668;19.326;2023-05-19T08:38:30;99767.66;;;27.64;41.53
80424;BME280;69765;47.668;19.326;2023-05-19T08:41:32;99777.03;;;25.81;45.28
80424;BME280;69765;47.668;19.326;2023-05-19T08:44:36;99781.97;;;23.12;50.90
80424;BME280;69765;47.668;19.326;2023-05-19T08:47:47;99768.38;;;23.99;49.94
80424;BME280;69765;47.668;19.326;2023-05-19T08:50:59;99772.16;;;26.07;46.02
80424;BME280;69765;47.668;19.326;2023-05-19T08:54:14;99768.75;;;25.05;47.84
80424;BME280;69765;47.668;19.326;2023-05-19T08:57:20;99769.38;;;24.46;48.80
80424;BME280;69765;47.668;19.326;2023-05-19T09:00:24;99770.97;;;24.82;49.06
80424;BME280;69765;47.668;19.326;2023-05-19T09:03:27;99775.91;;;25.65;44.60
80424;BME280;69765;47.668;19.326;2023-05-19T09:06:31;99778.72;;;23.57;47.90
80424;BME280;69765;47.668;19.326;2023-05-19T09:09:34;99777.41;;;26.09;44.71
80424;BME280;69765;47.668;19.326;2023-05-19T09:12:37;99767.47;;;25.86;42.12
80424;BME280;69765;47.668;19.326;2023-05-19T09:15:41;99769.22;;;26.51;41.73
80424;BME280;69765;47.668;19.326;2023-05-19T09:18:56;99769.16;;;25.83;44.83
80424;BME280;69765;47.668;19.326;2023-05-19T09:22:00;99771.66;;;26.37;43.16
80424;BME280;69765;47.668;19.326;2023-05-19T09:25:17;99776.56;;;25.02;46.45
80424;BME280;69765;47.668;19.326;2023-05-19T09:28:27;99768.88;;;25.10;44.50
80424;BME280;69765;47.668;19.326;2023-05-19T09:31:34;99763.06;;;25.29;47.81
80424;BME280;69765;47.668;19.326;2023-05-19T09:34:40;99763.53;;;26.95;43.03
80424;BME280;69765;47.668;19.326;2023-05-19T09:37:42;99761.97;;;25.71;45.64
80424;BME280;69765;47.668;19.326;2023-05-19T09:40:47;99766.56;;;24.80;48.74
80424;BME280;69765;47.668;19.326;2023-05-19T09:43:54;99766.16;;;24.60;48.67
80424;BME280;69765;47.668;19.326;2023-05-19T09:46:59;99757.81;;;25.29;47.62
80424;BME280;69765;47.668;19.326;2023-05-19T09:50:04;99761.53;;;24.46;50.18
80424;BME280;69765;47.668;19.326;2023-05-19T09:53:06;99765.16;;;24.12;49.52
80424;BME280;69765;47.668;19.326;2023-05-19T09:56:09;99755.94;;;24.30;50.21
80424;BME280;69765;47.668;19.326;2023-05-19T09:59:12;99754.06;;;23.47;51.27
80424;BME280;69765;47.668;19.326;2023-05-19T10:02:21;99756.34;;;22.97;53.67
80424;BME280;69765;47.668;19.326;2023-05-19T10:05:27;99760.72;;;22.98;53.61
80424;BME280;69765;47.668;19.326;2023-05-19T10:08:32;99748.75;;;24.62;48.21
80424;BME280;69765;47.668;19.326;2023-05-19T10:11:39;99743.22;;;26.80;43.22
80424;BME280;69765;47.668;19.326;2023-05-19T10:14:42;99738.25;;;28.56;38.77
80424;BME280;69765;47.668;19.326;2023-05-19T10:17:45;99738.06;;;28.07;39.88
80424;BME280;69765;47.668;19.326;2023-05-19T10:20:48;99743.41;;;26.19;45.06
80424;BME280;69765;47.668;19.326;2023-05-19T10:23:51;99745.75;;;25.39;46.42
80424;BME280;69765;47.668;19.326;2023-05-19T10:26:59;99742.22;;;24.40;47.80
80424;BME280;69765;47.668;19.326;2023-05-19T10:30:11;99742.84;;;24.30;48.31
80424;BME280;69765;47.668;19.326;2023-05-19T10:33:18;99742.75;;;24.25;48.54
80424;BME280;69765;47.668;19.326;2023-05-19T10:36:32;99739.91;;;23.74;48.81
80424;BME280;69765;47.668;19.326;2023-05-19T10:39:41;99731.59;;;25.31;47.62
80424;BME280;69765;47.668;19.326;2023-05-19T10:46:28;99723.47;;;27.23;37.79
80424;BME280;69765;47.668;19.326;2023-05-19T10:49:34;99710.81;;;28.03;38.23
80424;BME280;69765;47.668;19.326;2023-05-19T10:52:38;99712.47;;;26.71;40.51
80424;BME280;69765;47.668;19.326;2023-05-19T10:56:04;99719.03;;;25.10;44.94
80424;BME280;69765;47.668;19.326;2023-05-19T10:59:29;99717.13;;;23.69;46.71
80424;BME280;69765;47.668;19.326;2023-05-19T11:05:38;99704.25;;;27.31;42.73
80424;BME280;69765;47.668;19.326;2023-05-19T11:08:40;99699.59;;;28.42;39.81
80424;BME280;69765;47.668;19.326;2023-05-19T11:14:53;99686.31;;;28.27;39.30
80424;BME280;69765;47.668;19.326;2023-05-19T11:17:56;99696.75;;;27.90;39.50
80424;BME280;69765;47.668;19.326;2023-05-19T11:20:59;99701.38;;;26.19;42.63
80424;BME280;69765;47.668;19.326;2023-05-19T11:24:07;99716.47;;;26.36;41.87
80424;BME280;69765;47.668;19.326;2023-05-19T11:30:33;99708.69;;;23.81;47.21
80424;BME280;69765;47.668;19.326;2023-05-19T11:33:36;99700.19;;;24.35;43.80
80424;BME280;69765;47.668;19.326;2023-05-19T11:36:39;99700.97;;;24.77;47.47
80424;BME280;69765;47.668;19.326;2023-05-19T11:39:44;99702.47;;;24.62;44.52
80424;BME280;69765;47.668;19.326;2023-05-19T11:42:46;99700.84;;;24.23;46.00
80424;BME280;69765;47.668;19.326;2023-05-19T11:45:49;99694.38;;;24.08;45.97
80424;BME280;69765;47.668;19.326;2023-05-19T11:48:52;99692.47;;;24.41;48.28
80424;BME280;69765;47.668;19.326;2023-05-19T11:51:55;99695.84;;;24.83;45.96
80424;BME280;69765;47.668;19.326;2023-05-19T11:55:01;99682.06;;;24.94;44.20
80424;BME280;69765;47.668;19.326;2023-05-19T11:58:08;99693.69;;;25.09;44.08
80424;BME280;69765;47.668;19.326;2023-05-19T12:01:11;99682.91;;;24.43;47.04
80424;BME280;69765;47.668;19.326;2023-05-19T12:04:13;99687.47;;;24.54;44.35
80424;BME280;69765;47.668;19.326;2023-05-19T12:07:17;99692.06;;;23.79;50.35
80424;BME280;69765;47.668;19.326;2023-05-19T12:10:25;99691.50;;;23.17;46.92
80424;BME280;69765;47.668;19.326;2023-05-19T12:13:27;99686.03;;;23.82;49.67
80424;BME280;69765;47.668;19.326;2023-05-19T12:16:34;99689.06;;;23.25;51.07
80424;BME280;69765;47.668;19.326;2023-05-19T12:19:36;99675.63;;;22.76;49.32
80424;BME280;69765;47.668;19.326;2023-05-19T12:22:39;99681.56;;;22.36;49.60
80424;BME280;69765;47.668;19.326;2023-05-19T12:25:42;99671.97;;;22.68;50.49
80424;BME280;69765;47.668;19.326;2023-05-19T12:28:44;99668.66;;;22.75;47.81
80424;BME280;69765;47.668;19.326;2023-05-19T12:31:47;99669.94;;;22.91;49.36
80424;BME280;69765;47.668;19.326;2023-05-19T12:34:51;99672.38;;;22.50;50.47
80424;BME280;69765;47.668;19.326;2023-05-19T12:37:54;99671.16;;;22.72;51.84
80424;BME280;69765;47.668;19.326;2023-05-19T12:40:59;99667.22;;;23.23;49.13
80424;BME280;69765;47.668;19.326;2023-05-19T12:44:13;99664.47;;;23.54;50.43
80424;BME280;69765;47.668;19.326;2023-05-19T12:47:16;99666.06;;;23.87;50.85
80424;BME280;69765;47.668;19.326;2023-05-19T12:50:20;99658.16;;;22.74;50.02
80424;BME280;69765;47.668;19.326;2023-05-19T12:53:25;99655.72;;;23.54;51.13
80424;BME280;69765;47.668;19.326;2023-05-19T12:56:28;99646.75;;;23.82;48.54
80424;BME280;69765;47.668;19.326;2023-05-19T12:59:32;99659.38;;;23.62;48.59
80424;BME280;69765;47.668;19.326;2023-05-19T13:06:02;99647.13;;;23.20;49.90
80424;BME280;69765;47.668;19.326;2023-05-19T13:09:05;99637.88;;;23.34;53.21
80424;BME280;69765;47.668;19.326;2023-05-19T13:12:08;99639.59;;;22.96;51.52
80424;BME280;69765;47.668;19.326;2023-05-19T13:15:10;99640.72;;;23.46;50.32
80424;BME280;69765;47.668;19.326;2023-05-19T13:18:13;99636.47;;;23.50;48.10
80424;BME280;69765;47.668;19.326;2023-05-19T13:21:23;99626.22;;;23.61;48.76
80424;BME280;69765;47.668;19.326;2023-05-19T13:24:26;99627.06;;;23.60;48.85
80424;BME280;69765;47.668;19.326;2023-05-19T13:27:28;99619.16;;;23.97;51.53
80424;BME280;69765;47.668;19.326;2023-05-19T13:30:35;99613.91;;;23.97;51.59
80424;BME280;69765;47.668;19.326;2023-05-19T13:33:39;99622.91;;;23.29;50.90
80424;BME280;69765;47.668;19.326;2023-05-19T13:36:41;99619.81;;;23.86;48.49
80424;BME280;69765;47.668;19.326;2023-05-19T13:39:49;99612.91;;;23.49;48.77
80424;BME280;69765;47.668;19.326;2023-05-19T13:42:52;99614.72;;;23.13;46.92
80424;BME280;69765;47.668;19.326;2023-05-19T13:45:54;99613.53;;;22.99;48.04
80424;BME280;69765;47.668;19.326;2023-05-19T13:48:57;99608.94;;;23.28;47.03
80424;BME280;69765;47.668;19.326;2023-05-19T13:51:59;99598.88;;;23.45;51.10
80424;BME280;69765;47.668;19.326;2023-05-19T13:55:02;99605.28;;;23.61;48.56
80424;BME280;69765;47.668;19.326;2023-05-19T13:58:04;99590.09;;;23.84;48.37
80424;BME280;69765;47.668;19.326;2023-05-19T14:01:07;99589.16;;;23.80;48.57
80424;BME280;69765;47.668;19.326;2023-05-19T14:04:11;99598.03;;;23.87;50.62
80424;BME280;69765;47.668;19.326;2023-05-19T14:07:14;99596.00;;;23.74;47.87
80424;BME280;69765;47.668;19.326;2023-05-19T14:10:17;99594.28;;;24.19;45.85
80424;BME280;69765;47.668;19.326;2023-05-19T14:13:20;99597.34;;;23.98;45.76
80424;BME280;69765;47.668;19.326;2023-05-19T14:16:36;99597.69;;;24.65;44.82
80424;BME280;69765;47.668;19.326;2023-05-19T14:19:39;99600.28;;;24.64;42.83
80424;BME280;69765;47.668;19.326;2023-05-19T14:22:41;99592.09;;;24.42;43.83
80424;BME280;69765;47.668;19.326;2023-05-19T14:25:44;99593.06;;;24.47;45.00
80424;BME280;69765;47.668;19.326;2023-05-19T14:28:46;99600.31;;;24.65;46.37
80424;BME280;69765;47.668;19.326;2023-05-19T14:31:49;99595.22;;;24.73;45.55
80424;BME280;69765;47.668;19.326;2023-05-19T14:34:51;99589.97;;;24.71;43.50
80424;BME280;69765;47.668;19.326;2023-05-19T14:37:54;99589.91;;;24.20;42.92
80424;BME280;69765;47.668;19.326;2023-05-19T14:40:56;99599.97;;;24.44;43.77
80424;BME280;69765;47.668;19.326;2023-05-19T14:43:58;99594.91;;;24.55;43.83
80424;BME280;69765;47.668;19.326;2023-05-19T14:47:01;99597.56;;;24.56;43.84
80424;BME280;69765;47.668;19.326;2023-05-19T14:50:04;99595.94;;;24.64;43.16
80424;BME280;69765;47.668;19.326;2023-05-19T14:53:06;99589.06;;;24.71;45.67
80424;BME280;69765;47.668;19.326;2023-05-19T14:56:08;99591.47;;;24.57;49.41
80424;BME280;69765;47.668;19.326;2023-05-19T14:59:11;99591.75;;;24.26;49.97
80424;BME280;69765;47.668;19.326;2023-05-19T15:02:13;99579.69;;;24.34;45.91
80424;BME280;69765;47.668;19.326;2023-05-19T15:05:15;99580.75;;;24.43;44.85
80424;BME280;69765;47.668;19.326;2023-05-19T15:08:18;99594.13;;;24.60;44.50
80424;BME280;69765;47.668;19.326;2023-05-19T15:11:20;99582.59;;;24.51;42.97
80424;BME280;69765;47.668;19.326;2023-05-19T15:14:23;99579.75;;;24.37;43.42
80424;BME280;69765;47.668;19.326;2023-05-19T15:17:25;99573.53;;;24.32;45.79
80424;BME280;69765;47.668;19.326;2023-05-19T15:20:28;99567.66;;;24.43;46.54
80424;BME280;69765;47.668;19.326;2023-05-19T15:23:30;99579.63;;;24.31;52.06
80424;BME280;69765;47.668;19.326;2023-05-19T15:26:33;99568.78;;;24.09;49.38
80424;BME280;69765;47.668;19.326;2023-05-19T15:29:35;99572.09;;;24.01;50.37
80424;BME280;69765;47.668;19.326;2023-05-19T15:32:37;99570.91;;;23.83;52.85
80424;BME280;69765;47.668;19.326;2023-05-19T15:35:40;99574.09;;;23.67;52.14
80424;BME280;69765;47.668;19.326;2023-05-19T15:38:42;99577.94;;;23.45;53.74
80424;BME280;69765;47.668;19.326;2023-05-19T15:41:45;99567.31;;;23.37;53.22
80424;BME280;69765;47.668;19.326;2023-05-19T15:44:47;99569.22;;;23.44;52.26
80424;BME280;69765;47.668;19.326;2023-05-19T15:47:49;99566.44;;;23.37;49.76
80424;BME280;69765;47.668;19.326;2023-05-19T15:50:52;99562.53;;;23.16;47.76
80424;BME280;69765;47.668;19.326;2023-05-19T15:53:54;99567.78;;;23.18;52.62
80424;BME280;69765;47.668;19.326;2023-05-19T15:56:57;99565.81;;;23.08;48.84
80424;BME280;69765;47.668;19.326;2023-05-19T15:59:59;99566.59;;;23.05;51.95
80424;BME280;69765;47.668;19.326;2023-05-19T16:03:02;99571.03;;;23.08;53.54
80424;BME280;69765;47.668;19.326;2023-05-19T16:06:04;99570.69;;;22.92;54.53
80424;BME280;69765;47.668;19.326;2023-05-19T16:09:06;99570.47;;;22.85;51.62
80424;BME280;69765;47.668;19.326;2023-05-19T16:12:09;99571.25;;;22.81;52.93
80424;BME280;69765;47.668;19.326;2023-05-19T16:15:11;99575.97;;;22.59;58.58
80424;BME280;69765;47.668;19.326;2023-05-19T16:18:13;99576.53;;;22.48;58.77
80424;BME280;69765;47.668;19.326;2023-05-19T16:21:17;99581.38;;;22.32;58.80
80424;BME280;69765;47.668;19.326;2023-05-19T16:24:19;99581.47;;;22.35;56.56
80424;BME280;69765;47.668;19.326;2023-05-19T16:27:21;99582.41;;;22.39;56.16
80424;BME280;69765;47.668;19.326;2023-05-19T16:30:24;99581.25;;;22.28;58.47
80424;BME280;69765;47.668;19.326;2023-05-19T16:33:28;99585.34;;;22.16;54.11